Belo Jardim, Brazil
Current Conditions -  °F | °C
As of 5:00 PM on Saturday 25 Oct 2014 (Local Time) from SBKG Reporting Station
Few Clouds Few Clouds  
Wind Chill: 77°   Ceiling: Unl
Heat Index: 79°   Visibility: 6mi
Dew Point: 63°   Wind: 13mph
Humidity: 61%   Direction: 130°SE
Pressure: 29.97"   Gusts: NA
Location:  8.34°S, 36.42°W
Report Text: SBKG 252000Z 13011KT 9999 FEW030 25/17 Q1015
Loading
Personal Weather Stations






























Interactive Weather Map
Tropical Storm Tracking
New forecast layout! Learn more

10-Day Weather Forecast

Advertisements
Track Severe Weather on mobile